createdAt,value
2019-02-06T18:27:04.089Z,-3.30
2019-02-06T18:29:32.123Z,-3.30
2019-02-06T18:32:00.380Z,-3.30
2019-02-06T18:34:28.522Z,-3.30
2019-02-06T18:36:56.863Z,-3.30
2019-02-06T18:39:24.910Z,-3.20
2019-02-06T18:41:52.956Z,-3.20
2019-02-06T18:44:21.060Z,-3.20
2019-02-06T18:46:52.677Z,-3.20
2019-02-06T18:49:20.648Z,-3.10
2019-02-06T18:51:48.844Z,-3.10
2019-02-06T18:54:17.004Z,-3.10
2019-02-06T18:56:45.676Z,-3.00
2019-02-06T18:59:14.004Z,-3.00
2019-02-06T19:01:42.110Z,-3.00
2019-02-06T19:04:18.433Z,-3.00
2019-02-06T19:06:46.510Z,-2.90
2019-02-06T19:09:15.868Z,-2.90
2019-02-06T19:11:44.140Z,-2.90
2019-02-06T19:14:12.578Z,-2.80
2019-02-06T19:16:41.028Z,-2.80
2019-02-06T19:19:09.093Z,-2.70
2019-02-06T19:21:37.419Z,-2.70
2019-02-06T19:24:05.807Z,-2.70
2019-02-06T19:26:33.905Z,-2.70
2019-02-06T19:29:02.181Z,-2.60
2019-02-06T19:31:30.243Z,-2.60
2019-02-06T19:33:58.390Z,-2.60
2019-02-06T19:36:26.420Z,-2.60
2019-02-06T19:38:54.491Z,-2.60
2019-02-06T19:41:22.573Z,-2.50
2019-02-06T19:43:50.569Z,-2.50
2019-02-06T19:46:18.854Z,-2.50
2019-02-06T19:48:47.112Z,-2.40
2019-02-06T19:51:15.166Z,-2.40
2019-02-06T19:53:43.688Z,-2.40
2019-02-06T19:56:11.625Z,-2.40
2019-02-06T19:58:41.157Z,-2.30
2019-02-06T20:01:09.220Z,-2.30
2019-02-06T20:03:37.430Z,-2.20
2019-02-06T20:06:05.823Z,-2.30
2019-02-06T20:08:34.044Z,-2.30
2019-02-06T20:11:02.177Z,-2.20
2019-02-06T20:13:30.698Z,-2.20
2019-02-06T20:15:59.078Z,-2.20
2019-02-06T20:18:27.278Z,-2.20
2019-02-06T20:20:55.375Z,-2.20
2019-02-06T20:23:23.456Z,-2.10
2019-02-06T20:25:51.580Z,-2.10
2019-02-06T20:28:19.827Z,-2.10
2019-02-06T20:30:48.291Z,-2.10
2019-02-06T20:33:16.940Z,-2.00
2019-02-06T20:35:45.026Z,-2.00
2019-02-06T20:38:13.084Z,-2.00
2019-02-06T20:40:41.159Z,-2.00
2019-02-06T20:43:09.397Z,-2.00
2019-02-06T20:45:37.600Z,-1.90
2019-02-06T20:48:05.631Z,-1.90
2019-02-06T20:50:33.995Z,-1.90
2019-02-06T20:53:03.036Z,-1.90
2019-02-06T20:55:31.390Z,-1.90
2019-02-06T20:57:59.670Z,-1.80
2019-02-06T21:00:33.453Z,-1.80
2019-02-06T21:03:01.676Z,-1.80
2019-02-06T21:05:29.804Z,-1.80
2019-02-06T21:07:58.426Z,-1.70
2019-02-06T21:10:27.731Z,-1.60
2019-02-06T21:12:57.617Z,-1.60
2019-02-06T21:15:25.749Z,-1.60
2019-02-06T21:17:53.837Z,-1.50
2019-02-06T21:20:21.901Z,-1.50
2019-02-06T21:22:50.267Z,-1.50
2019-02-06T21:25:19.126Z,-1.50
2019-02-06T21:27:48.324Z,-1.40
2019-02-06T21:30:18.576Z,-1.40
2019-02-06T21:32:46.903Z,-1.40
2019-02-06T21:35:15.231Z,-1.40
2019-02-06T21:37:43.271Z,-1.30
2019-02-06T21:40:20.373Z,-1.30
2019-02-06T21:42:48.692Z,-1.30
2019-02-06T21:45:16.655Z,-1.30
2019-02-06T21:47:44.864Z,-1.30
2019-02-06T21:50:17.126Z,-1.20
2019-02-06T21:52:45.311Z,-1.20
2019-02-06T21:55:14.903Z,-1.20
2019-02-06T21:57:43.260Z,-1.10
2019-02-06T22:00:14.808Z,-1.10
2019-02-06T22:02:42.896Z,-1.00
2019-02-06T22:05:11.307Z,-1.00
2019-02-06T22:07:39.475Z,-1.00
2019-02-06T22:10:08.637Z,-1.00
2019-02-06T22:12:37.721Z,-1.00
2019-02-06T22:15:09.289Z,-0.90
2019-02-06T22:17:37.213Z,-0.90
2019-02-06T22:20:05.904Z,-0.90
2019-02-06T22:22:35.402Z,-0.80
2019-02-06T22:25:04.748Z,-0.80
2019-02-06T22:27:32.687Z,-0.80
2019-02-06T22:30:00.914Z,-0.80
2019-02-06T22:32:29.275Z,-0.70
2019-02-06T22:34:57.295Z,-0.70
2019-02-06T22:37:25.395Z,-0.70
2019-02-06T22:39:53.411Z,-0.70
2019-02-06T22:42:21.490Z,-0.70
2019-02-06T22:44:49.713Z,-0.70
2019-02-06T22:47:17.640Z,-0.70
2019-02-06T22:49:45.693Z,-0.70
2019-02-06T22:52:14.112Z,-0.60
2019-02-06T22:54:42.127Z,-0.60
2019-02-06T22:57:12.312Z,-0.60
2019-02-06T22:59:40.507Z,-0.60
2019-02-06T23:02:08.851Z,-0.60
2019-02-06T23:04:39.182Z,-0.50
2019-02-06T23:07:07.455Z,-0.50
2019-02-06T23:09:35.539Z,-0.50
2019-02-06T23:12:04.341Z,-0.50
2019-02-06T23:14:32.606Z,-0.50
2019-02-06T23:17:00.679Z,-0.40
2019-02-06T23:19:28.717Z,-0.30
2019-02-06T23:21:56.765Z,-0.30
2019-02-06T23:24:25.198Z,-0.30
2019-02-06T23:26:53.177Z,-0.40
2019-02-06T23:29:21.615Z,-0.30
2019-02-06T23:31:49.685Z,-0.30
2019-02-06T23:34:17.689Z,-0.30
2019-02-06T23:36:45.943Z,-0.30
2019-02-06T23:39:15.801Z,-0.30
2019-02-06T23:41:43.758Z,-0.30
2019-02-06T23:44:12.237Z,-0.30
2019-02-06T23:46:40.147Z,-0.30
2019-02-06T23:49:08.300Z,-0.20
2019-02-06T23:51:36.466Z,-0.20
2019-02-06T23:54:04.712Z,-0.20
2019-02-06T23:56:32.600Z,-0.20
2019-02-06T23:59:00.624Z,-0.20
